sensor_id;sensor_type;location;lat;lon;timestamp;pressure;altitude;pressure_sealevel;temperature;humidity
54503;BME280;40411;50.090;21.954;2024-02-14T00:02:13;65269.16;;;7.21;82.32
54503;BME280;40411;50.090;21.954;2024-02-14T00:04:39;65306.56;;;7.14;82.30
54503;BME280;40411;50.090;21.954;2024-02-14T00:07:05;65327.97;;;6.80;83.54
54503;BME280;40411;50.090;21.954;2024-02-14T00:09:31;65274.47;;;7.28;81.70
54503;BME280;40411;50.090;21.954;2024-02-14T00:11:57;65307.47;;;7.13;82.25
54503;BME280;40411;50.090;21.954;2024-02-14T00:14:23;65278.03;;;7.33;82.22
54503;BME280;40411;50.090;21.954;2024-02-14T00:16:49;65279.00;;;7.20;82.32
54503;BME280;40411;50.090;21.954;2024-02-14T00:19:16;65277.47;;;7.02;83.64
54503;BME280;40411;50.090;21.954;2024-02-14T00:21:42;65273.75;;;7.01;83.95
54503;BME280;40411;50.090;21.954;2024-02-14T00:24:08;65231.19;;;7.26;82.84
54503;BME280;40411;50.090;21.954;2024-02-14T00:26:34;65268.59;;;7.20;84.06
54503;BME280;40411;50.090;21.954;2024-02-14T00:29:01;65234.00;;;7.29;83.87
54503;BME280;40411;50.090;21.954;2024-02-14T00:31:27;65233.03;;;7.42;83.09
54503;BME280;40411;50.090;21.954;2024-02-14T00:33:53;65281.63;;;7.39;83.90
54503;BME280;40411;50.090;21.954;2024-02-14T00:36:19;65264.88;;;7.19;85.22
54503;BME280;40411;50.090;21.954;2024-02-14T00:38:45;65279.09;;;6.97;86.59
54503;BME280;40411;50.090;21.954;2024-02-14T00:41:11;65253.84;;;7.11;86.05
54503;BME280;40411;50.090;21.954;2024-02-14T00:43:37;65264.84;;;7.31;85.53
54503;BME280;40411;50.090;21.954;2024-02-14T00:46:03;65211.56;;;7.65;84.19
54503;BME280;40411;50.090;21.954;2024-02-14T00:48:29;65261.50;;;7.16;86.09
54503;BME280;40411;50.090;21.954;2024-02-14T00:50:55;65272.03;;;7.11;87.19
54503;BME280;40411;50.090;21.954;2024-02-14T00:53:21;65204.69;;;7.64;84.22
54503;BME280;40411;50.090;21.954;2024-02-14T00:55:46;65251.22;;;7.42;85.03
54503;BME280;40411;50.090;21.954;2024-02-14T00:58:12;65280.06;;;7.02;87.40
54503;BME280;40411;50.090;21.954;2024-02-14T01:00:38;65216.13;;;7.57;85.68
54503;BME280;40411;50.090;21.954;2024-02-14T01:03:06;65238.69;;;7.16;86.03
54503;BME280;40411;50.090;21.954;2024-02-14T01:05:32;65226.19;;;7.10;87.30
54503;BME280;40411;50.090;21.954;2024-02-14T01:07:58;65275.53;;;7.10;87.27
54503;BME280;40411;50.090;21.954;2024-02-14T01:10:24;65251.75;;;7.24;86.90
54503;BME280;40411;50.090;21.954;2024-02-14T01:12:50;65245.00;;;7.18;86.48
54503;BME280;40411;50.090;21.954;2024-02-14T01:15:16;65274.56;;;6.92;87.96
54503;BME280;40411;50.090;21.954;2024-02-14T01:17:42;65268.13;;;6.96;87.81
54503;BME280;40411;50.090;21.954;2024-02-14T01:20:08;65219.16;;;6.94;88.32
54503;BME280;40411;50.090;21.954;2024-02-14T01:22:35;65272.19;;;6.95;88.53
54503;BME280;40411;50.090;21.954;2024-02-14T01:25:01;65291.50;;;6.84;88.46
54503;BME280;40411;50.090;21.954;2024-02-14T01:27:28;65250.03;;;7.03;87.91
54503;BME280;40411;50.090;21.954;2024-02-14T01:29:54;65278.84;;;6.94;87.86
54503;BME280;40411;50.090;21.954;2024-02-14T01:32:21;65267.59;;;7.14;86.54
54503;BME280;40411;50.090;21.954;2024-02-14T01:34:46;65250.50;;;7.27;85.29
54503;BME280;40411;50.090;21.954;2024-02-14T01:37:12;65245.78;;;7.21;84.76
54503;BME280;40411;50.090;21.954;2024-02-14T01:39:38;65233.53;;;7.54;83.69
54503;BME280;40411;50.090;21.954;2024-02-14T01:42:04;65269.16;;;7.21;84.04
54503;BME280;40411;50.090;21.954;2024-02-14T01:44:33;65248.38;;;7.51;83.56
54503;BME280;40411;50.090;21.954;2024-02-14T01:47:00;65206.16;;;8.00;81.44
54503;BME280;40411;50.090;21.954;2024-02-14T01:49:27;65262.38;;;7.76;81.67
54503;BME280;40411;50.090;21.954;2024-02-14T01:51:55;65252.44;;;7.50;82.60
54503;BME280;40411;50.090;21.954;2024-02-14T01:54:25;65278.47;;;7.38;82.64
54503;BME280;40411;50.090;21.954;2024-02-14T01:56:53;65254.44;;;7.31;83.03
54503;BME280;40411;50.090;21.954;2024-02-14T01:59:20;65235.94;;;7.52;82.53
54503;BME280;40411;50.090;21.954;2024-02-14T02:01:46;65244.81;;;7.65;81.81
54503;BME280;40411;50.090;21.954;2024-02-14T02:04:13;65223.91;;;7.57;82.14
54503;BME280;40411;50.090;21.954;2024-02-14T02:06:39;65233.97;;;7.59;81.60
54503;BME280;40411;50.090;21.954;2024-02-14T02:09:07;65224.28;;;7.55;82.96
54503;BME280;40411;50.090;21.954;2024-02-14T02:11:53;65267.63;;;7.64;81.21
54503;BME280;40411;50.090;21.954;2024-02-14T02:14:19;65203.69;;;7.77;79.94
54503;BME280;40411;50.090;21.954;2024-02-14T02:16:47;65227.47;;;7.75;79.68
54503;BME280;40411;50.090;21.954;2024-02-14T02:19:13;65211.41;;;7.51;80.54
54503;BME280;40411;50.090;21.954;2024-02-14T02:21:42;65285.53;;;7.24;79.88
54503;BME280;40411;50.090;21.954;2024-02-14T02:24:11;65313.63;;;7.00;80.24
54503;BME280;40411;50.090;21.954;2024-02-14T02:26:37;65298.34;;;7.09;80.20
54503;BME280;40411;50.090;21.954;2024-02-14T02:29:03;65330.94;;;7.20;79.01
54503;BME280;40411;50.090;21.954;2024-02-14T02:31:31;65330.19;;;7.05;79.69
54503;BME280;40411;50.090;21.954;2024-02-14T02:33:56;65320.16;;;7.03;79.72
54503;BME280;40411;50.090;21.954;2024-02-14T02:36:24;65287.88;;;7.02;79.67
54503;BME280;40411;50.090;21.954;2024-02-14T02:38:51;65317.56;;;7.34;78.40
54503;BME280;40411;50.090;21.954;2024-02-14T02:41:17;65282.41;;;7.42;77.67
54503;BME280;40411;50.090;21.954;2024-02-14T02:43:43;65300.50;;;7.35;77.71
54503;BME280;40411;50.090;21.954;2024-02-14T02:46:09;65281.72;;;7.46;77.61
54503;BME280;40411;50.090;21.954;2024-02-14T02:48:35;65313.22;;;7.56;76.93
54503;BME280;40411;50.090;21.954;2024-02-14T02:51:01;65297.09;;;7.44;77.11
54503;BME280;40411;50.090;21.954;2024-02-14T02:53:27;65311.91;;;7.41;77.47
54503;BME280;40411;50.090;21.954;2024-02-14T02:55:53;65247.41;;;7.65;76.82
54503;BME280;40411;50.090;21.954;2024-02-14T02:58:20;65272.34;;;7.71;76.49
54503;BME280;40411;50.090;21.954;2024-02-14T03:00:47;65278.13;;;7.90;75.45
54503;BME280;40411;50.090;21.954;2024-02-14T03:03:15;65307.28;;;7.72;75.98
54503;BME280;40411;50.090;21.954;2024-02-14T03:05:42;65290.75;;;7.73;76.55
54503;BME280;40411;50.090;21.954;2024-02-14T03:08:10;65219.78;;;8.08;75.27
54503;BME280;40411;50.090;21.954;2024-02-14T03:10:41;65258.69;;;7.63;76.94
54503;BME280;40411;50.090;21.954;2024-02-14T03:13:07;65288.91;;;7.57;77.67
54503;BME280;40411;50.090;21.954;2024-02-14T03:15:37;65267.00;;;7.56;78.10
54503;BME280;40411;50.090;21.954;2024-02-14T03:18:04;65275.84;;;7.50;77.89
54503;BME280;40411;50.090;21.954;2024-02-14T03:20:35;65271.63;;;7.56;78.73
54503;BME280;40411;50.090;21.954;2024-02-14T03:23:02;65242.00;;;8.00;76.77
54503;BME280;40411;50.090;21.954;2024-02-14T03:25:29;65197.97;;;8.21;76.09
54503;BME280;40411;50.090;21.954;2024-02-14T03:27:55;65197.41;;;8.40;75.55
54503;BME280;40411;50.090;21.954;2024-02-14T03:30:22;65273.22;;;8.00;76.23
54503;BME280;40411;50.090;21.954;2024-02-14T03:32:49;65236.09;;;8.23;75.70
54503;BME280;40411;50.090;21.954;2024-02-14T03:35:15;65236.72;;;7.93;77.39
54503;BME280;40411;50.090;21.954;2024-02-14T03:37:42;65230.53;;;7.87;77.87
54503;BME280;40411;50.090;21.954;2024-02-14T03:40:10;65242.34;;;7.79;78.67
54503;BME280;40411;50.090;21.954;2024-02-14T03:42:35;65267.28;;;7.85;77.98
54503;BME280;40411;50.090;21.954;2024-02-14T03:45:02;65269.38;;;7.54;78.97
54503;BME280;40411;50.090;21.954;2024-02-14T03:47:32;65247.53;;;7.60;79.04
54503;BME280;40411;50.090;21.954;2024-02-14T03:50:01;65268.59;;;7.51;79.90
54503;BME280;40411;50.090;21.954;2024-02-14T03:52:30;65269.63;;;7.45;80.12
54503;BME280;40411;50.090;21.954;2024-02-14T03:54:59;65295.75;;;7.40;80.81
54503;BME280;40411;50.090;21.954;2024-02-14T03:57:26;65268.16;;;7.46;79.44
54503;BME280;40411;50.090;21.954;2024-02-14T03:59:59;65187.47;;;7.88;77.93
54503;BME280;40411;50.090;21.954;2024-02-14T04:02:43;65247.88;;;7.77;78.13
54503;BME280;40411;50.090;21.954;2024-02-14T04:05:09;65251.31;;;7.68;78.33
54503;BME280;40411;50.090;21.954;2024-02-14T04:07:35;65219.44;;;7.91;77.79
54503;BME280;40411;50.090;21.954;2024-02-14T04:10:03;65221.97;;;7.84;79.81
54503;BME280;40411;50.090;21.954;2024-02-14T04:12:29;65172.94;;;8.27;76.33
54503;BME280;40411;50.090;21.954;2024-02-14T04:14:55;65204.75;;;8.09;78.14
54503;BME280;40411;50.090;21.954;2024-02-14T04:17:20;65210.28;;;8.06;77.59
54503;BME280;40411;50.090;21.954;2024-02-14T04:19:46;65206.56;;;8.05;77.93
54503;BME280;40411;50.090;21.954;2024-02-14T04:22:12;65209.06;;;7.91;79.00
54503;BME280;40411;50.090;21.954;2024-02-14T04:24:39;65273.03;;;7.67;79.92
54503;BME280;40411;50.090;21.954;2024-02-14T04:27:04;65254.53;;;7.38;81.11
54503;BME280;40411;50.090;21.954;2024-02-14T04:29:31;65252.66;;;7.53;80.43
54503;BME280;40411;50.090;21.954;2024-02-14T04:31:59;65277.22;;;7.42;80.49
54503;BME280;40411;50.090;21.954;2024-02-14T04:34:26;65301.88;;;7.27;80.82
54503;BME280;40411;50.090;21.954;2024-02-14T04:36:52;65264.78;;;7.43;80.21
54503;BME280;40411;50.090;21.954;2024-02-14T04:39:18;65298.88;;;7.22;81.07
54503;BME280;40411;50.090;21.954;2024-02-14T04:41:44;65277.88;;;7.50;79.50
54503;BME280;40411;50.090;21.954;2024-02-14T04:44:10;65244.09;;;7.69;78.99
54503;BME280;40411;50.090;21.954;2024-02-14T04:46:36;65314.34;;;7.14;80.95
54503;BME280;40411;50.090;21.954;2024-02-14T04:49:03;65249.78;;;7.12;81.99
54503;BME280;40411;50.090;21.954;2024-02-14T04:51:30;65274.13;;;6.87;83.47
54503;BME280;40411;50.090;21.954;2024-02-14T04:53:57;65295.44;;;6.88;82.92
54503;BME280;40411;50.090;21.954;2024-02-14T04:56:27;65321.00;;;6.59;84.65
54503;BME280;40411;50.090;21.954;2024-02-14T04:58:54;65316.81;;;6.77;83.70
54503;BME280;40411;50.090;21.954;2024-02-14T05:01:20;65294.63;;;7.08;82.50
54503;BME280;40411;50.090;21.954;2024-02-14T05:03:46;65354.19;;;6.70;83.89
54503;BME280;40411;50.090;21.954;2024-02-14T05:06:13;65327.34;;;6.60;84.28
54503;BME280;40411;50.090;21.954;2024-02-14T05:08:39;65312.31;;;6.72;84.44
54503;BME280;40411;50.090;21.954;2024-02-14T05:11:04;65293.84;;;7.05;82.42
54503;BME280;40411;50.090;21.954;2024-02-14T05:13:30;65272.72;;;7.38;81.71
54503;BME280;40411;50.090;21.954;2024-02-14T05:15:56;65235.09;;;7.60;80.58
54503;BME280;40411;50.090;21.954;2024-02-14T05:18:22;65256.47;;;7.61;81.02
54503;BME280;40411;50.090;21.954;2024-02-14T05:20:48;65224.50;;;7.58;81.21
54503;BME280;40411;50.090;21.954;2024-02-14T05:23:15;65212.63;;;7.59;80.87
54503;BME280;40411;50.090;21.954;2024-02-14T05:25:43;65272.91;;;7.22;81.81
54503;BME280;40411;50.090;21.954;2024-02-14T05:28:09;65242.06;;;7.20;82.69
54503;BME280;40411;50.090;21.954;2024-02-14T05:30:40;65252.63;;;7.34;82.08
54503;BME280;40411;50.090;21.954;2024-02-14T05:33:06;65309.53;;;7.01;83.52
54503;BME280;40411;50.090;21.954;2024-02-14T05:35:32;65270.97;;;7.18;83.18
54503;BME280;40411;50.090;21.954;2024-02-14T05:37:58;65244.13;;;7.38;82.07
54503;BME280;40411;50.090;21.954;2024-02-14T05:40:23;65254.72;;;7.22;82.99
54503;BME280;40411;50.090;21.954;2024-02-14T05:42:50;65267.00;;;7.26;82.92
54503;BME280;40411;50.090;21.954;2024-02-14T05:45:15;65221.16;;;7.24;83.03
54503;BME280;40411;50.090;21.954;2024-02-14T05:47:42;65235.91;;;7.33;82.81
54503;BME280;40411;50.090;21.954;2024-02-14T05:50:09;65243.50;;;7.49;81.73
54503;BME280;40411;50.090;21.954;2024-02-14T05:52:37;65209.31;;;7.44;81.93
54503;BME280;40411;50.090;21.954;2024-02-14T05:55:04;65260.06;;;7.36;82.39
54503;BME280;40411;50.090;21.954;2024-02-14T05:57:30;65250.38;;;7.32;82.81
54503;BME280;40411;50.090;21.954;2024-02-14T05:59:56;65264.13;;;7.35;82.82
54503;BME280;40411;50.090;21.954;2024-02-14T06:02:22;65236.75;;;7.43;82.76
54503;BME280;40411;50.090;21.954;2024-02-14T06:04:48;65248.03;;;7.53;82.17
54503;BME280;40411;50.090;21.954;2024-02-14T06:07:14;65206.00;;;7.48;82.44
54503;BME280;40411;50.090;21.954;2024-02-14T06:09:40;65230.56;;;7.37;83.32
54503;BME280;40411;50.090;21.954;2024-02-14T06:12:06;65213.56;;;7.27;84.10
54503;BME280;40411;50.090;21.954;2024-02-14T06:14:32;65204.22;;;7.21;84.86
54503;BME280;40411;50.090;21.954;2024-02-14T06:17:00;65237.38;;;7.01;85.36
54503;BME280;40411;50.090;21.954;2024-02-14T06:19:27;65218.44;;;6.98;85.82
54503;BME280;40411;50.090;21.954;2024-02-14T06:21:53;65231.75;;;6.96;85.91
54503;BME280;40411;50.090;21.954;2024-02-14T06:24:19;65208.50;;;7.03;85.77
54503;BME280;40411;50.090;21.954;2024-02-14T06:26:45;65278.81;;;7.06;85.13
54503;BME280;40411;50.090;21.954;2024-02-14T06:29:11;65230.81;;;7.09;85.25
54503;BME280;40411;50.090;21.954;2024-02-14T06:31:37;65250.72;;;6.99;85.53
54503;BME280;40411;50.090;21.954;2024-02-14T06:34:03;65249.00;;;7.09;85.76
54503;BME280;40411;50.090;21.954;2024-02-14T06:36:30;65262.41;;;6.84;86.62
54503;BME280;40411;50.090;21.954;2024-02-14T06:38:56;65239.66;;;7.03;86.51
54503;BME280;40411;50.090;21.954;2024-02-14T06:41:22;65230.38;;;7.04;86.54
54503;BME280;40411;50.090;21.954;2024-02-14T06:43:48;65216.16;;;7.27;85.19
54503;BME280;40411;50.090;21.954;2024-02-14T06:46:15;65240.53;;;7.02;85.69
54503;BME280;40411;50.090;21.954;2024-02-14T06:48:40;65232.38;;;7.15;85.66
54503;BME280;40411;50.090;21.954;2024-02-14T06:51:07;65263.84;;;6.94;85.97
54503;BME280;40411;50.090;21.954;2024-02-14T06:53:32;65223.19;;;6.93;87.12
54503;BME280;40411;50.090;21.954;2024-02-14T06:55:58;65246.31;;;6.71;87.86
54503;BME280;40411;50.090;21.954;2024-02-14T06:58:24;65235.34;;;6.71;88.29
54503;BME280;40411;50.090;21.954;2024-02-14T07:00:50;65250.16;;;6.56;89.84
54503;BME280;40411;50.090;21.954;2024-02-14T07:03:16;65246.97;;;6.67;88.80
54503;BME280;40411;50.090;21.954;2024-02-14T07:05:42;65220.09;;;6.81;88.57
54503;BME280;40411;50.090;21.954;2024-02-14T07:08:08;65224.06;;;7.03;87.56
54503;BME280;40411;50.090;21.954;2024-02-14T07:10:34;65220.31;;;7.14;87.34
54503;BME280;40411;50.090;21.954;2024-02-14T07:13:00;65227.22;;;7.04;87.54
54503;BME280;40411;50.090;21.954;2024-02-14T07:15:26;65193.72;;;7.25;86.73
54503;BME280;40411;50.090;21.954;2024-02-14T07:17:56;65236.94;;;7.27;86.81
54503;BME280;40411;50.090;21.954;2024-02-14T07:20:24;65218.63;;;7.31;86.93
54503;BME280;40411;50.090;21.954;2024-02-14T07:22:53;65191.38;;;7.35;86.94
54503;BME280;40411;50.090;21.954;2024-02-14T07:25:19;65175.81;;;7.35;86.73
54503;BME280;40411;50.090;21.954;2024-02-14T07:27:45;65177.22;;;7.65;85.78
54503;BME280;40411;50.090;21.954;2024-02-14T07:30:14;65191.75;;;7.33;86.16
54503;BME280;40411;50.090;21.954;2024-02-14T07:32:39;65244.13;;;7.07;87.67
54503;BME280;40411;50.090;21.954;2024-02-14T07:35:06;65123.19;;;7.65;85.81
54503;BME280;40411;50.090;21.954;2024-02-14T07:37:32;65167.25;;;7.51;86.02
54503;BME280;40411;50.090;21.954;2024-02-14T07:39:58;65156.28;;;7.50;86.39
54503;BME280;40411;50.090;21.954;2024-02-14T07:42:24;65155.44;;;7.59;86.05
54503;BME280;40411;50.090;21.954;2024-02-14T07:44:50;65141.56;;;7.87;84.51
54503;BME280;40411;50.090;21.954;2024-02-14T07:47:15;65106.34;;;7.95;83.75
54503;BME280;40411;50.090;21.954;2024-02-14T07:49:42;65091.69;;;8.19;84.00
54503;BME280;40411;50.090;21.954;2024-02-14T07:52:08;65131.91;;;8.09;83.49
54503;BME280;40411;50.090;21.954;2024-02-14T07:54:34;65047.28;;;8.50;82.10
54503;BME280;40411;50.090;21.954;2024-02-14T07:56:59;65032.63;;;8.56;81.85
54503;BME280;40411;50.090;21.954;2024-02-14T07:59:25;65104.63;;;8.12;82.55
54503;BME280;40411;50.090;21.954;2024-02-14T08:01:52;64974.25;;;8.62;81.37
54503;BME280;40411;50.090;21.954;2024-02-14T08:04:18;65094.06;;;8.43;81.55
54503;BME280;40411;50.090;21.954;2024-02-14T08:06:47;65050.72;;;8.67;81.68
54503;BME280;40411;50.090;21.954;2024-02-14T08:09:15;65041.19;;;8.59;81.71
54503;BME280;40411;50.090;21.954;2024-02-14T08:11:41;65009.91;;;8.92;80.87
54503;BME280;40411;50.090;21.954;2024-02-14T08:14:07;64960.66;;;9.16;79.81
54503;BME280;40411;50.090;21.954;2024-02-14T08:16:33;65023.88;;;8.98;79.70
54503;BME280;40411;50.090;21.954;2024-02-14T08:18:59;65020.88;;;8.92;79.24
54503;BME280;40411;50.090;21.954;2024-02-14T08:21:26;65041.66;;;8.78;78.20
54503;BME280;40411;50.090;21.954;2024-02-14T08:23:53;65064.97;;;8.57;79.13
54503;BME280;40411;50.090;21.954;2024-02-14T08:26:19;65011.56;;;8.86;79.10
54503;BME280;40411;50.090;21.954;2024-02-14T08:28:45;64975.22;;;9.36;75.59
54503;BME280;40411;50.090;21.954;2024-02-14T08:31:12;64977.44;;;9.24;76.08
54503;BME280;40411;50.090;21.954;2024-02-14T08:33:39;64930.75;;;9.34;77.59
54503;BME280;40411;50.090;21.954;2024-02-14T08:36:05;64941.38;;;9.79;74.76
54503;BME280;40411;50.090;21.954;2024-02-14T08:38:33;64931.13;;;9.60;74.99
54503;BME280;40411;50.090;21.954;2024-02-14T08:41:04;64932.06;;;9.66;74.96
54503;BME280;40411;50.090;21.954;2024-02-14T08:43:30;64866.50;;;9.90;76.14
54503;BME280;40411;50.090;21.954;2024-02-14T08:45:57;64936.19;;;9.72;73.61
54503;BME280;40411;50.090;21.954;2024-02-14T08:48:23;64885.13;;;9.73;77.15
54503;BME280;40411;50.090;21.954;2024-02-14T08:50:49;64872.81;;;10.05;72.38
54503;BME280;40411;50.090;21.954;2024-02-14T08:53:16;64911.56;;;9.71;74.08
54503;BME280;40411;50.090;21.954;2024-02-14T08:55:41;64900.75;;;10.02;71.44
54503;BME280;40411;50.090;21.954;2024-02-14T08:58:08;64909.34;;;9.91;72.51
54503;BME280;40411;50.090;21.954;2024-02-14T09:00:37;64900.78;;;9.95;73.32
54503;BME280;40411;50.090;21.954;2024-02-14T09:03:04;64849.88;;;10.05;73.27
54503;BME280;40411;50.090;21.954;2024-02-14T09:05:31;64922.75;;;9.74;72.44
54503;BME280;40411;50.090;21.954;2024-02-14T09:07:57;64940.28;;;9.78;72.12
54503;BME280;40411;50.090;21.954;2024-02-14T09:10:23;64908.22;;;9.68;75.51
54503;BME280;40411;50.090;21.954;2024-02-14T09:12:49;64901.50;;;9.69;75.45
54503;BME280;40411;50.090;21.954;2024-02-14T09:15:15;64777.19;;;10.70;72.11
54503;BME280;40411;50.090;21.954;2024-02-14T09:17:42;64748.06;;;10.72;70.42
54503;BME280;40411;50.090;21.954;2024-02-14T09:20:09;64773.28;;;10.67;70.98
54503;BME280;40411;50.090;21.954;2024-02-14T09:22:36;64858.59;;;10.40;70.66
54503;BME280;40411;50.090;21.954;2024-02-14T09:25:02;64889.19;;;10.29;67.78
54503;BME280;40411;50.090;21.954;2024-02-14T09:27:32;64916.03;;;10.33;67.45
54503;BME280;40411;50.090;21.954;2024-02-14T09:29:58;65038.97;;;9.66;67.84
54503;BME280;40411;50.090;21.954;2024-02-14T09:32:25;65025.53;;;9.54;67.64
54503;BME280;40411;50.090;21.954;2024-02-14T09:34:50;64994.28;;;9.82;67.52
54503;BME280;40411;50.090;21.954;2024-02-14T09:37:16;64829.59;;;10.73;65.89
54503;BME280;40411;50.090;21.954;2024-02-14T09:39:42;64941.38;;;10.44;63.93
54503;BME280;40411;50.090;21.954;2024-02-14T09:42:13;64758.16;;;11.37;61.71
54503;BME280;40411;50.090;21.954;2024-02-14T09:44:40;64899.53;;;10.72;61.81
54503;BME280;40411;50.090;21.954;2024-02-14T09:47:07;64719.06;;;11.71;61.87
54503;BME280;40411;50.090;21.954;2024-02-14T09:49:35;64704.72;;;11.91;58.44
54503;BME280;40411;50.090;21.954;2024-02-14T09:52:05;64556.41;;;12.47;57.61
54503;BME280;40411;50.090;21.954;2024-02-14T09:54:31;64743.88;;;11.74;57.26
54503;BME280;40411;50.090;21.954;2024-02-14T09:57:02;64915.53;;;10.99;60.34
54503;BME280;40411;50.090;21.954;2024-02-14T09:59:28;64958.91;;;10.55;59.57
54503;BME280;40411;50.090;21.954;2024-02-14T10:01:55;64976.78;;;10.71;58.62
54503;BME280;40411;50.090;21.954;2024-02-14T10:04:21;65067.19;;;10.16;59.23
54503;BME280;40411;50.090;21.954;2024-02-14T10:06:48;65072.25;;;10.20;58.52
54503;BME280;40411;50.090;21.954;2024-02-14T10:09:20;65144.84;;;9.94;56.17
54503;BME280;40411;50.090;21.954;2024-02-14T10:11:46;65225.25;;;9.74;54.50
54503;BME280;40411;50.090;21.954;2024-02-14T10:14:12;65102.41;;;10.05;55.84
54503;BME280;40411;50.090;21.954;2024-02-14T10:19:04;65240.19;;;9.45;55.50
54503;BME280;40411;50.090;21.954;2024-02-14T10:21:33;65189.09;;;9.65;53.87
54503;BME280;40411;50.090;21.954;2024-02-14T10:24:00;65077.63;;;10.01;58.19
54503;BME280;40411;50.090;21.954;2024-02-14T10:26:26;65065.53;;;10.14;56.89
54503;BME280;40411;50.090;21.954;2024-02-14T10:28:52;65214.91;;;9.89;53.09
54503;BME280;40411;50.090;21.954;2024-02-14T10:31:18;65169.41;;;9.80;54.76
54503;BME280;40411;50.090;21.954;2024-02-14T10:33:44;65162.44;;;10.12;54.85
54503;BME280;40411;50.090;21.954;2024-02-14T10:36:12;65134.19;;;10.39;51.69
54503;BME280;40411;50.090;21.954;2024-02-14T10:38:39;65166.59;;;10.25;51.46
54503;BME280;40411;50.090;21.954;2024-02-14T10:41:05;65211.59;;;10.00;50.53
54503;BME280;40411;50.090;21.954;2024-02-14T10:43:31;65081.06;;;10.69;51.42
54503;BME280;40411;50.090;21.954;2024-02-14T10:46:05;65013.09;;;11.26;50.57
54503;BME280;40411;50.090;21.954;2024-02-14T10:48:34;65004.25;;;11.56;47.89
54503;BME280;40411;50.090;21.954;2024-02-14T10:51:02;64931.63;;;11.88;47.67
54503;BME280;40411;50.090;21.954;2024-02-14T10:53:32;65140.97;;;11.02;47.39
54503;BME280;40411;50.090;21.954;2024-02-14T10:56:00;65105.13;;;10.69;48.91
54503;BME280;40411;50.090;21.954;2024-02-14T10:58:28;65106.06;;;10.75;49.03
54503;BME280;40411;50.090;21.954;2024-02-14T11:00:56;65138.34;;;10.66;48.76
54503;BME280;40411;50.090;21.954;2024-02-14T11:03:22;65110.53;;;10.72;51.24
54503;BME280;40411;50.090;21.954;2024-02-14T11:05:49;65116.16;;;10.84;48.85
54503;BME280;40411;50.090;21.954;2024-02-14T11:08:19;65031.25;;;10.95;53.54
54503;BME280;40411;50.090;21.954;2024-02-14T11:10:56;65083.69;;;11.12;50.94
54503;BME280;40411;50.090;21.954;2024-02-14T11:13:30;65108.13;;;10.82;51.38
54503;BME280;40411;50.090;21.954;2024-02-14T11:16:02;65123.81;;;10.89;48.50
54503;BME280;40411;50.090;21.954;2024-02-14T11:18:30;64959.66;;;11.85;48.65
54503;BME280;40411;50.090;21.954;2024-02-14T11:20:56;65171.38;;;10.68;49.80
54503;BME280;40411;50.090;21.954;2024-02-14T11:23:25;65118.75;;;10.63;51.47
54503;BME280;40411;50.090;21.954;2024-02-14T11:26:02;65125.84;;;10.74;49.62
54503;BME280;40411;50.090;21.954;2024-02-14T11:28:29;64935.91;;;11.44;51.82
54503;BME280;40411;50.090;21.954;2024-02-14T11:31:00;65046.09;;;11.42;47.04
54503;BME280;40411;50.090;21.954;2024-02-14T11:33:27;65062.19;;;11.11;48.64
54503;BME280;40411;50.090;21.954;2024-02-14T11:35:53;65170.41;;;10.48;49.83
54503;BME280;40411;50.090;21.954;2024-02-14T11:38:22;65143.03;;;10.73;49.96
54503;BME280;40411;50.090;21.954;2024-02-14T11:40:53;64954.94;;;11.47;50.39
54503;BME280;40411;50.090;21.954;2024-02-14T11:43:20;64920.06;;;11.87;48.58
54503;BME280;40411;50.090;21.954;2024-02-14T11:45:46;65005.91;;;11.65;48.32
54503;BME280;40411;50.090;21.954;2024-02-14T11:48:16;64900.88;;;12.05;49.01
54503;BME280;40411;50.090;21.954;2024-02-14T11:50:45;64959.31;;;11.80;47.29
54503;BME280;40411;50.090;21.954;2024-02-14T11:53:12;64945.13;;;11.72;48.01
54503;BME280;40411;50.090;21.954;2024-02-14T11:55:39;65003.84;;;11.66;47.62
54503;BME280;40411;50.090;21.954;2024-02-14T11:58:11;65075.09;;;11.23;49.82
54503;BME280;40411;50.090;21.954;2024-02-14T12:00:38;65118.22;;;11.05;49.17
54503;BME280;40411;50.090;21.954;2024-02-14T12:03:18;65038.31;;;11.13;48.38
54503;BME280;40411;50.090;21.954;2024-02-14T12:05:49;65173.75;;;10.51;49.80
54503;BME280;40411;50.090;21.954;2024-02-14T12:08:16;65189.72;;;10.27;50.74
54503;BME280;40411;50.090;21.954;2024-02-14T12:10:44;65114.84;;;10.73;49.67
54503;BME280;40411;50.090;21.954;2024-02-14T12:13:16;65095.06;;;11.17;47.57
54503;BME280;40411;50.090;21.954;2024-02-14T12:15:47;65148.47;;;11.04;45.10
54503;BME280;40411;50.090;21.954;2024-02-14T12:18:14;65050.59;;;11.39;48.54
54503;BME280;40411;50.090;21.954;2024-02-14T12:20:41;65170.59;;;10.50;49.68
54503;BME280;40411;50.090;21.954;2024-02-14T12:23:07;65136.50;;;10.91;49.52
54503;BME280;40411;50.090;21.954;2024-02-14T12:28:00;65229.63;;;10.31;48.90
54503;BME280;40411;50.090;21.954;2024-02-14T12:30:47;65140.97;;;10.88;49.17
54503;BME280;40411;50.090;21.954;2024-02-14T12:33:16;65194.53;;;10.84;47.51
54503;BME280;40411;50.090;21.954;2024-02-14T12:35:43;65241.53;;;10.22;47.42
54503;BME280;40411;50.090;21.954;2024-02-14T12:38:11;65087.97;;;10.92;49.53
54503;BME280;40411;50.090;21.954;2024-02-14T12:40:38;65056.22;;;11.30;48.10
54503;BME280;40411;50.090;21.954;2024-02-14T12:43:08;65125.69;;;10.93;45.33
54503;BME280;40411;50.090;21.954;2024-02-14T12:45:34;65007.50;;;11.95;44.66
54503;BME280;40411;50.090;21.954;2024-02-14T12:48:01;65005.09;;;11.76;45.28
54503;BME280;40411;50.090;21.954;2024-02-14T12:50:27;65048.44;;;11.75;43.91
54503;BME280;40411;50.090;21.954;2024-02-14T12:52:53;65087.16;;;11.60;44.13
54503;BME280;40411;50.090;21.954;2024-02-14T12:55:19;65027.09;;;11.32;48.96
54503;BME280;40411;50.090;21.954;2024-02-14T12:57:45;65097.25;;;11.62;44.94
54503;BME280;40411;50.090;21.954;2024-02-14T13:00:12;65058.06;;;11.41;45.64
54503;BME280;40411;50.090;21.954;2024-02-14T13:02:38;65110.19;;;11.10;47.20